Time;durP1;ratioP1;P1;durP2;ratioP2;P2;SDS_P1;SDS_P2;PMS_P1;PMS_P2;Temp;Humidity;BMP_temperature;BMP_pressure;BME280_temperature;BME280_humidity;BME280_pressure;Samples;Min_cycle;Max_cycle;Signal;HPM_P1;HPM_P2
2021/09/24 00:02:07;;;;;;;19.10;10.25;;;;;;;6.79;100.00;98638.86;1696794;83;20993;-70
2021/09/24 00:04:36;;;;;;;17.98;9.80;;;;;;;6.83;100.00;98632.22;1704197;83;21024;-69
2021/09/24 00:07:03;;;;;;;15.75;9.85;;;;;;;6.85;100.00;98625.33;1704204;84;21421;-69
2021/09/24 00:09:30;;;;;;;18.52;10.82;;;;;;;6.88;100.00;98627.98;1697330;83;20977;-69
2021/09/24 00:11:58;;;;;;;14.83;10.48;;;;;;;6.90;100.00;98622.46;1692901;84;20902;-70
2021/09/24 00:14:24;;;;;;;16.93;10.68;;;;;;;6.91;100.00;98617.81;1706905;83;21546;-71
2021/09/24 00:16:53;;;;;;;18.07;10.18;;;;;;;6.91;100.00;98619.17;1689622;83;21036;-68
2021/09/24 00:19:20;;;;;;;14.35;9.68;;;;;;;6.94;100.00;98608.97;1684347;82;20938;-69
2021/09/24 00:21:48;;;;;;;19.20;11.38;;;;;;;6.93;100.00;98601.34;1659898;84;20944;-69
2021/09/24 00:24:15;;;;;;;16.05;10.28;;;;;;;6.95;100.00;98595.02;1628747;85;21144;-68
2021/09/24 00:26:42;;;;;;;13.32;10.10;;;;;;;6.96;100.00;98580.81;1655446;86;20947;-69
2021/09/24 00:29:10;;;;;;;16.23;10.88;;;;;;;6.98;100.00;98578.57;1657631;86;21464;-68
2021/09/24 00:31:38;;;;;;;18.87;10.63;;;;;;;7.00;100.00;98584.52;1651705;86;21511;-69
2021/09/24 00:34:05;;;;;;;21.80;12.25;;;;;;;7.03;100.00;98579.80;1658673;85;20955;-73
2021/09/24 00:36:34;;;;;;;17.62;10.32;;;;;;;7.05;100.00;98559.81;1650086;86;21605;-73
2021/09/24 00:39:02;;;;;;;18.73;10.95;;;;;;;7.09;100.00;98566.25;1643058;86;20940;-70
2021/09/24 00:41:29;;;;;;;15.35;10.72;;;;;;;7.11;100.00;98559.11;1660356;85;20992;-70
2021/09/24 00:43:55;;;;;;;16.37;10.10;;;;;;;7.14;100.00;98553.02;1658054;85;20963;-70
2021/09/24 00:46:23;;;;;;;14.68;10.60;;;;;;;7.16;100.00;98557.05;1660745;86;20907;-71
2021/09/24 00:48:49;;;;;;;16.95;10.58;;;;;;;7.18;100.00;98553.44;1660886;85;21823;-70
2021/09/24 00:51:16;;;;;;;15.20;10.65;;;;;;;7.20;100.00;98553.12;1651521;86;20860;-70
2021/09/24 00:53:44;;;;;;;17.82;11.28;;;;;;;7.21;100.00;98554.17;1633405;85;21440;-70
2021/09/24 00:56:13;;;;;;;17.12;10.82;;;;;;;7.23;100.00;98547.02;1657389;85;21012;-69
2021/09/24 00:58:39;;;;;;;19.45;11.10;;;;;;;7.24;100.00;98547.27;1658533;85;21435;-69
2021/09/24 01:01:08;;;;;;;18.00;11.20;;;;;;;7.24;100.00;98538.52;1662873;85;20935;-69
2021/09/24 01:03:36;;;;;;;24.02;11.75;;;;;;;7.26;100.00;98532.73;1658506;85;20911;-70
2021/09/24 01:06:03;;;;;;;15.58;10.53;;;;;;;7.27;100.00;98522.87;1659470;85;20915;-70
2021/09/24 01:08:31;;;;;;;18.37;11.88;;;;;;;7.30;100.00;98520.06;1650017;86;20968;-71
2021/09/24 01:11:00;;;;;;;20.23;12.50;;;;;;;7.32;100.00;98518.38;1650633;86;20982;-70
2021/09/24 01:13:26;;;;;;;18.48;11.60;;;;;;;7.33;100.00;98507.14;1656965;86;21074;-71
2021/09/24 01:15:55;;;;;;;18.07;12.43;;;;;;;7.34;100.00;98507.37;1654018;85;21122;-72
2021/09/24 01:18:25;;;;;;;18.65;12.28;;;;;;;7.35;100.00;98503.53;1652034;86;20880;-72
2021/09/24 01:20:55;;;;;;;22.70;11.97;;;;;;;7.37;100.00;98506.74;1666207;85;21500;-71
2021/09/24 01:23:23;;;;;;;24.75;13.30;;;;;;;7.42;100.00;98503.05;1658483;85;21128;-71
2021/09/24 01:25:51;;;;;;;20.20;12.95;;;;;;;7.44;100.00;98484.42;1661265;85;21270;-71
2021/09/24 01:28:18;;;;;;;19.57;12.88;;;;;;;7.46;100.00;98487.08;1662628;85;20932;-71
2021/09/24 01:30:44;;;;;;;18.12;12.55;;;;;;;7.47;100.00;98475.03;1658018;85;20994;-70
2021/09/24 01:33:13;;;;;;;20.40;12.75;;;;;;;7.48;100.00;98473.91;1650092;86;20979;-70
2021/09/24 01:35:39;;;;;;;19.23;12.65;;;;;;;7.49;100.00;98469.25;1657397;85;21517;-71
2021/09/24 01:38:06;;;;;;;17.17;13.05;;;;;;;7.48;100.00;98457.52;1659677;85;21089;-71
2021/09/24 01:40:33;;;;;;;18.73;12.68;;;;;;;7.48;100.00;98455.35;1649904;86;21428;-71
2021/09/24 01:43:01;;;;;;;19.67;12.53;;;;;;;7.47;100.00;98448.28;1653013;86;21445;-70
2021/09/24 01:45:28;;;;;;;19.20;11.57;;;;;;;7.45;100.00;98446.44;1655611;85;20984;-71
2021/09/24 01:47:55;;;;;;;20.77;12.47;;;;;;;7.44;100.00;98452.46;1651249;85;21019;-71
2021/09/24 01:50:21;;;;;;;17.95;11.63;;;;;;;7.44;100.00;98448.92;1653162;86;21157;-71
2021/09/24 01:52:49;;;;;;;20.92;13.53;;;;;;;7.43;100.00;98445.95;1656930;85;20944;-70
2021/09/24 01:55:16;;;;;;;18.00;11.93;;;;;;;7.42;100.00;98441.62;1653833;86;21507;-70
2021/09/24 01:57:44;;;;;;;20.30;13.38;;;;;;;7.43;100.00;98436.40;1654686;86;20984;-70
2021/09/24 02:00:14;;;;;;;21.80;13.43;;;;;;;7.44;100.00;98439.37;1655767;85;21023;-69
2021/09/24 02:02:41;;;;;;;20.25;13.00;;;;;;;7.45;100.00;98430.05;1658795;85;20889;-72
2021/09/24 02:05:09;;;;;;;21.62;13.05;;;;;;;7.43;100.00;98421.38;1660662;85;20924;-70
2021/09/24 02:07:36;;;;;;;21.75;13.88;;;;;;;7.45;100.00;98416.40;1640172;86;21068;-72
2021/09/24 02:10:06;;;;;;;20.92;13.22;;;;;;;7.45;100.00;98410.94;1652584;85;21003;-72
2021/09/24 02:12:36;;;;;;;19.98;13.38;;;;;;;7.46;100.00;98407.89;1658764;85;21011;-72
2021/09/24 02:15:05;;;;;;;18.80;12.75;;;;;;;7.47;100.00;98404.59;1658455;85;21035;-72
2021/09/24 02:17:32;;;;;;;22.73;13.80;;;;;;;7.47;100.00;98393.67;1659241;85;20903;-70
2021/09/24 02:20:00;;;;;;;24.10;13.18;;;;;;;7.48;100.00;98390.62;1659429;85;20962;-70
2021/09/24 02:22:28;;;;;;;18.37;12.47;;;;;;;7.48;100.00;98376.97;1663590;86;21022;-69
2021/09/24 02:24:57;;;;;;;20.43;13.30;;;;;;;7.50;100.00;98383.47;1660837;85;20899;-68
2021/09/24 02:27:25;;;;;;;18.98;12.25;;;;;;;7.50;100.00;98380.17;1651921;86;21178;-69
2021/09/24 02:29:53;;;;;;;19.07;13.25;;;;;;;7.53;100.00;98386.89;1656567;86;20991;-71
2021/09/24 02:32:21;;;;;;;21.52;13.03;;;;;;;7.53;100.00;98367.21;1657335;86;20916;-69
2021/09/24 02:34:48;;;;;;;19.30;12.13;;;;;;;7.54;100.00;98370.74;1650324;86;21224;-71
2021/09/24 02:37:16;;;;;;;16.87;11.55;;;;;;;7.54;100.00;98364.72;1659314;85;21014;-70
2021/09/24 02:39:43;;;;;;;18.35;12.43;;;;;;;7.55;100.00;98350.50;1666039;84;21156;-70
2021/09/24 02:42:10;;;;;;;22.00;13.40;;;;;;;7.55;100.00;98351.30;1612545;87;20925;-69
2021/09/24 02:44:38;;;;;;;21.02;12.60;;;;;;;7.56;100.00;98341.98;1610565;89;21060;-69
2021/09/24 02:47:08;;;;;;;22.17;12.50;;;;;;;7.55;100.00;98340.37;1609437;89;21024;-69
2021/09/24 02:49:38;;;;;;;22.98;12.85;;;;;;;7.56;100.00;98341.17;1608654;89;20937;-69
2021/09/24 02:52:06;;;;;;;20.85;12.37;;;;;;;7.57;100.00;98338.69;1628442;87;21140;-70
2021/09/24 02:54:32;;;;;;;18.92;11.63;;;;;;;7.58;100.00;98336.20;1652043;85;21614;-70
2021/09/24 02:56:59;;;;;;;18.90;11.28;;;;;;;7.58;100.00;98337.56;1650087;86;21238;-70
2021/09/24 02:59:25;;;;;;;20.23;12.73;;;;;;;7.59;100.00;98328.23;1656458;86;21531;-72
2021/09/24 03:01:55;;;;;;;21.65;12.25;;;;;;;7.60;100.00;98325.75;1657087;85;20932;-73
2021/09/24 03:04:22;;;;;;;16.85;11.93;;;;;;;7.61;100.00;98324.63;1656813;86;21223;-71
2021/09/24 03:06:49;;;;;;;15.83;10.85;;;;;;;7.62;100.00;98324.86;1655584;86;20940;-71
2021/09/24 03:09:17;;;;;;;18.98;12.03;;;;;;;7.63;100.00;98319.63;1660548;85;20951;-73
2021/09/24 03:11:44;;;;;;;19.73;12.15;;;;;;;7.64;100.00;98308.95;1650742;86;21558;-73
2021/09/24 03:14:13;;;;;;;19.75;13.10;;;;;;;7.65;100.00;98305.09;1650053;86;20960;-72
2021/09/24 03:16:41;;;;;;;20.10;11.95;;;;;;;7.65;100.00;98299.63;1651891;86;20903;-74
2021/09/24 03:19:10;;;;;;;19.55;12.75;;;;;;;7.66;100.00;98290.87;1655188;86;20857;-72
2021/09/24 03:21:39;;;;;;;17.15;11.65;;;;;;;7.65;100.00;98295.53;1652855;86;20939;-73
2021/09/24 03:24:06;;;;;;;17.23;11.25;;;;;;;7.67;100.00;98290.54;1657506;85;21023;-74
2021/09/24 03:26:34;;;;;;;18.37;10.88;;;;;;;7.66;100.00;98289.50;1662718;85;21456;-73
2021/09/24 03:29:01;;;;;;;17.57;12.13;;;;;;;7.67;100.00;98288.38;1650723;86;21150;-72
2021/09/24 03:31:28;;;;;;;18.07;12.07;;;;;;;7.65;100.00;98270.95;1647842;87;20955;-72
2021/09/24 03:33:56;;;;;;;19.73;11.73;;;;;;;7.65;100.00;98273.67;1644902;86;20919;-73
2021/09/24 03:36:23;;;;;;;18.05;11.53;;;;;;;7.66;100.00;98263.55;1644818;87;20935;-73
2021/09/24 03:38:50;;;;;;;17.37;11.12;;;;;;;7.66;100.00;98260.82;1644819;87;21109;-73
2021/09/24 03:41:17;;;;;;;20.97;11.20;;;;;;;7.67;100.00;98261.06;1645045;87;21073;-73
2021/09/24 03:43:45;;;;;;;17.98;11.80;;;;;;;7.66;100.00;98248.53;1644833;87;20994;-73
2021/09/24 03:46:11;;;;;;;20.70;12.28;;;;;;;7.65;100.00;98250.46;1644793;87;20919;-75
2021/09/24 03:48:39;;;;;;;17.27;11.15;;;;;;;7.65;100.00;98239.53;1648940;85;21037;-71
2021/09/24 03:51:05;;;;;;;18.30;11.83;;;;;;;7.65;100.00;98231.34;1639105;87;21523;-69
2021/09/24 03:53:32;;;;;;;19.23;11.48;;;;;;;7.66;100.00;98232.14;1640906;87;21194;-73
2021/09/24 03:56:00;;;;;;;14.90;10.50;;;;;;;7.67;100.00;98222.25;1640465;87;21051;-74
2021/09/24 03:58:28;;;;;;;19.92;12.43;;;;;;;7.67;100.00;98212.70;1643357;87;20911;-73
2021/09/24 04:00:57;;;;;;;19.12;11.78;;;;;;;7.67;100.00;98203.70;1644785;86;21525;-75
2021/09/24 04:03:24;;;;;;;16.65;10.98;;;;;;;7.67;100.00;98202.33;1644884;87;20918;-74
2021/09/24 04:05:50;;;;;;;25.48;12.55;;;;;;;7.66;100.00;98199.37;1644779;87;21978;-73
2021/09/24 04:08:18;;;;;;;20.25;11.88;;;;;;;7.65;100.00;98200.50;1639304;85;20904;-74
2021/09/24 04:10:45;;;;;;;15.78;11.12;;;;;;;7.65;100.00;98195.03;1623159;85;21032;-74
2021/09/24 04:13:13;;;;;;;16.90;10.98;;;;;;;7.63;100.00;98183.07;1641092;87;20923;-72
2021/09/24 04:15:41;;;;;;;19.50;11.90;;;;;;;7.63;100.00;98178.97;1630075;85;21000;-73
2021/09/24 04:18:08;;;;;;;17.17;12.05;;;;;;;7.62;100.00;98160.98;1606304;88;22729;-73
2021/09/24 04:20:35;;;;;;;17.57;11.55;;;;;;;7.61;100.00;98161.55;1627363;86;21139;-71
2021/09/24 04:23:01;;;;;;;18.55;11.55;;;;;;;7.60;100.00;98150.39;1639997;86;20916;-74
2021/09/24 04:25:29;;;;;;;18.65;11.53;;;;;;;7.60;100.00;98145.50;1681311;84;21511;-75
2021/09/24 04:27:55;;;;;;;21.77;12.70;;;;;;;7.60;100.00;98153.12;1682452;84;21066;-73
2021/09/24 04:30:22;;;;;;;20.37;12.20;;;;;;;7.60;100.00;98158.58;1681681;84;21115;-74
2021/09/24 04:32:48;;;;;;;20.80;13.15;;;;;;;7.61;100.00;98156.09;1680316;84;20978;-74
2021/09/24 04:35:15;;;;;;;21.00;13.55;;;;;;;7.61;100.00;98136.97;1681852;84;20954;-74
2021/09/24 04:37:43;;;;;;;17.98;12.03;;;;;;;7.63;100.00;98143.47;1682119;84;21199;-74
2021/09/24 04:40:12;;;;;;;22.60;12.25;;;;;;;7.62;100.00;98134.47;1683941;84;21002;-73
2021/09/24 04:42:38;;;;;;;20.30;12.82;;;;;;;7.65;100.00;98134.37;1686321;82;21176;-75
2021/09/24 04:45:05;;;;;;;20.80;12.43;;;;;;;7.65;100.00;98131.65;1695985;83;21039;-73
2021/09/24 04:47:34;;;;;;;18.42;11.57;;;;;;;7.66;100.00;98120.16;1697084;83;21028;-77
2021/09/24 04:50:07;;;;;;;18.10;12.47;;;;;;;7.67;100.00;98108.91;1653871;85;20930;-75
2021/09/24 04:52:33;;;;;;;23.00;13.48;;;;;;;7.67;100.00;98106.73;1647889;87;21040;-77
2021/09/24 04:55:01;;;;;;;22.90;13.38;;;;;;;7.67;100.00;98109.47;1650784;86;21208;-76
2021/09/24 04:57:29;;;;;;;22.90;13.35;;;;;;;7.68;100.00;98098.21;1643281;86;20896;-74
2021/09/24 04:59:56;;;;;;;22.93;14.15;;;;;;;7.68;100.00;98090.02;1639471;86;21004;-72
2021/09/24 05:02:23;;;;;;;21.82;12.70;;;;;;;7.68;100.00;98075.56;1641772;86;20932;-72
2021/09/24 05:04:50;;;;;;;27.70;15.23;;;;;;;7.69;100.00;98078.53;1628049;87;20916;-72
2021/09/24 05:07:17;;;;;;;26.45;16.40;;;;;;;7.68;100.00;98079.66;1638975;86;22076;-72
2021/09/24 05:09:45;;;;;;;35.73;19.62;;;;;;;7.70;100.00;98076.83;1623930;87;21087;-73
2021/09/24 05:12:13;;;;;;;33.53;17.70;;;;;;;7.69;100.00;98071.13;1692821;83;20961;-83
2021/09/24 05:14:40;;;;;;;25.52;16.05;;;;;;;7.71;100.00;98055.78;1696815;83;21490;-85
2021/09/24 05:17:07;;;;;;;29.48;17.62;;;;;;;7.71;100.00;98052.48;1696085;83;20989;-80
2021/09/24 05:19:34;;;;;;;21.90;14.95;;;;;;;7.73;100.00;98045.31;1696289;83;22236;-69
2021/09/24 05:22:00;;;;;;;22.50;14.78;;;;;;;7.73;100.00;98055.68;1670594;83;21097;-79
2021/09/24 05:24:27;;;;;;;21.42;13.55;;;;;;;7.74;100.00;98042.25;1679300;83;21026;-82
2021/09/24 05:26:55;;;;;;;21.35;13.90;;;;;;;7.75;100.00;98023.93;1668069;84;20999;-77
2021/09/24 05:29:23;;;;;;;19.50;12.15;;;;;;;7.76;100.00;98022.23;1669138;85;21096;-76
2021/09/24 05:31:50;;;;;;;22.25;14.53;;;;;;;7.76;100.00;98014.61;1667138;85;21510;-76
2021/09/24 05:34:19;;;;;;;19.40;12.70;;;;;;;7.78;100.00;98017.23;1670247;86;20956;-76
2021/09/24 05:36:46;;;;;;;20.60;13.85;;;;;;;7.80;100.00;98016.90;1670757;85;21526;-78
2021/09/24 05:39:12;;;;;;;21.30;12.53;;;;;;;7.80;100.00;98013.60;1663834;85;20987;-81
2021/09/24 05:41:41;;;;;;;21.75;14.15;;;;;;;7.81;100.00;98006.20;1670303;84;20885;-80
2021/09/24 05:44:07;;;;;;;24.00;14.10;;;;;;;7.82;100.00;98000.41;1693898;83;21017;-78
2021/09/24 05:46:33;;;;;;;20.85;13.18;;;;;;;7.82;100.00;98003.14;1703970;83;21409;-78
2021/09/24 05:49:02;;;;;;;21.70;13.70;;;;;;;7.82;100.00;97992.22;1700226;83;20898;-79
2021/09/24 05:51:28;;;;;;;25.65;15.08;;;;;;;7.82;100.00;98003.14;1700260;83;21057;-80
2021/09/24 05:53:55;;;;;;;22.02;13.78;;;;;;;7.82;100.00;97982.65;1707667;84;21012;-76
2021/09/24 05:56:21;;;;;;;22.15;13.45;;;;;;;7.83;100.00;97970.59;1703926;83;22198;-74
2021/09/24 05:58:48;;;;;;;20.85;12.78;;;;;;;7.84;100.00;97977.66;1707512;84;21489;-76
2021/09/24 06:01:15;;;;;;;20.25;12.40;;;;;;;7.85;100.00;97990.74;1700298;83;21007;-80
2021/09/24 06:03:42;;;;;;;25.40;14.30;;;;;;;7.85;100.00;97979.81;1709668;83;21016;-77
2021/09/24 06:06:08;;;;;;;23.30;13.75;;;;;;;7.85;100.00;97983.91;1690459;83;21015;-76
2021/09/24 06:08:36;;;;;;;21.62;13.43;;;;;;;7.86;100.00;97975.38;1700128;83;21145;-81
2021/09/24 06:11:03;;;;;;;27.45;14.65;;;;;;;7.86;100.00;97968.55;1699231;83;20894;-79
2021/09/24 06:13:31;;;;;;;23.35;13.22;;;;;;;7.87;100.00;97955.12;1701918;83;20890;-78
2021/09/24 06:15:57;;;;;;;19.65;12.75;;;;;;;7.89;100.00;97953.42;1704876;83;20953;-74
2021/09/24 06:18:29;;;;;;;18.42;12.35;;;;;;;7.92;100.00;97959.02;1699588;83;21255;-82
2021/09/24 06:20:53;;;;;;;18.57;13.20;;;;;;;7.93;100.00;97959.24;1707187;83;21184;-82
2021/09/24 06:23:19;;;;;;;19.60;12.70;;;;;;;7.94;100.00;97954.58;1705093;83;20863;-85
2021/09/24 06:25:48;;;;;;;23.05;12.90;;;;;;;7.98;100.00;97958.80;1696088;83;21016;-83
2021/09/24 06:28:14;;;;;;;21.30;13.08;;;;;;;7.99;100.00;97961.77;1703026;83;21021;-79
2021/09/24 06:30:41;;;;;;;19.85;12.15;;;;;;;8.01;100.00;97952.66;1708487;83;20894;-75
2021/09/24 06:33:07;;;;;;;20.02;11.88;;;;;;;8.03;100.00;97942.99;1706699;83;21038;-79
2021/09/24 06:35:34;;;;;;;18.15;12.35;;;;;;;8.05;100.00;97957.69;1707079;83;21442;-74
2021/09/24 06:38:00;;;;;;;19.15;12.63;;;;;;;8.07;100.00;97950.75;1685867;83;21005;-70
2021/09/24 06:40:29;;;;;;;19.35;12.80;;;;;;;8.08;100.00;97951.55;1697105;83;20941;-71
2021/09/24 06:42:55;;;;;;;18.10;11.53;;;;;;;8.09;100.00;97938.88;1685982;84;21033;-70
2021/09/24 06:45:22;;;;;;;17.57;11.78;;;;;;;8.10;100.00;97944.58;1701774;83;21088;-71
2021/09/24 06:47:48;;;;;;;17.62;11.48;;;;;;;8.12;100.00;97939.57;1707766;84;20985;-72
2021/09/24 06:50:15;;;;;;;18.52;11.48;;;;;;;8.14;100.00;97937.86;1687437;83;20996;-72
2021/09/24 06:52:43;;;;;;;17.92;11.35;;;;;;;8.15;100.00;97941.63;1686478;83;20948;-77
2021/09/24 06:55:09;;;;;;;24.47;15.58;;;;;;;8.17;100.00;97938.55;1691831;84;20931;-73
2021/09/24 06:57:36;;;;;;;21.17;13.78;;;;;;;8.17;100.00;97931.16;1691543;84;21143;-71
2021/09/24 07:00:05;;;;;;;18.32;12.53;;;;;;;8.17;100.00;97928.98;1691556;84;20972;-80
2021/09/24 07:02:32;;;;;;;20.25;12.55;;;;;;;8.19;100.00;97923.98;1691782;84;21443;-74
2021/09/24 07:04:59;;;;;;;20.08;13.48;;;;;;;8.21;100.00;97915.67;1691872;84;21495;-76
2021/09/24 07:07:25;;;;;;;18.02;11.73;;;;;;;8.21;100.00;97906.10;1681320;82;21006;-86
2021/09/24 07:09:54;;;;;;;20.02;13.05;;;;;;;8.24;100.00;97910.09;1688108;83;21019;-84
2021/09/24 07:12:22;;;;;;;17.30;11.70;;;;;;;8.26;100.00;97911.92;1691726;83;21069;-77
2021/09/24 07:14:50;;;;;;;20.97;12.47;;;;;;;8.28;100.00;97906.91;1693948;83;20978;-79
2021/09/24 07:17:16;;;;;;;19.98;11.68;;;;;;;8.32;100.00;97902.36;1693669;84;21248;-79
2021/09/24 07:19:45;;;;;;;19.95;11.63;;;;;;;8.33;100.00;97878.02;1692459;83;21535;-80
2021/09/24 07:22:12;;;;;;;19.40;12.03;;;;;;;8.35;100.00;97895.44;1689764;84;21447;-75
2021/09/24 07:24:39;;;;;;;21.90;12.65;;;;;;;8.36;100.00;97893.73;1694702;83;20960;-76
2021/09/24 07:27:05;;;;;;;20.23;12.70;;;;;;;8.38;100.00;97897.50;1697596;83;21097;-77
2021/09/24 07:29:32;;;;;;;19.50;12.73;;;;;;;8.40;100.00;97898.75;1700242;84;21601;-76
2021/09/24 07:31:59;;;;;;;19.57;12.43;;;;;;;8.42;100.00;97892.38;1697845;83;21027;-79
2021/09/24 07:34:26;;;;;;;20.68;12.88;;;;;;;8.46;100.00;97893.28;1695024;83;21605;-78
2021/09/24 07:36:54;;;;;;;25.02;14.78;;;;;;;8.49;100.00;97880.30;1701179;83;21436;-76
2021/09/24 07:39:20;;;;;;;21.23;14.00;;;;;;;8.53;100.00;97893.52;1691071;83;20988;-77
2021/09/24 07:41:47;;;;;;;18.92;12.25;;;;;;;8.56;100.00;97877.79;1698415;84;20941;-76
2021/09/24 07:44:13;;;;;;;17.37;12.25;;;;;;;8.60;100.00;97880.64;1690733;84;21030;-77
2021/09/24 07:46:40;;;;;;;17.45;11.65;;;;;;;8.64;100.00;97884.28;1692671;84;21532;-77
2021/09/24 07:49:07;;;;;;;16.45;11.03;;;;;;;8.68;100.00;97898.05;1695705;84;20904;-78
2021/09/24 07:51:34;;;;;;;19.70;11.70;;;;;;;8.71;100.00;97888.58;1698056;84;21063;-79
2021/09/24 07:54:02;;;;;;;21.40;12.00;;;;;;;8.75;100.00;97884.59;1680347;84;20981;-78
2021/09/24 07:56:29;;;;;;;20.72;12.78;;;;;;;8.77;100.00;97888.58;1694073;84;21039;-74
2021/09/24 07:58:57;;;;;;;20.75;13.45;;;;;;;8.80;100.00;97884.35;1701300;84;21000;-82
2021/09/24 08:01:27;;;;;;;20.43;12.58;;;;;;;8.85;100.00;97881.38;1700964;84;21499;-78
2021/09/24 08:03:55;;;;;;;19.27;12.35;;;;;;;8.88;100.00;97891.64;1689675;84;21196;-77
2021/09/24 08:06:22;;;;;;;19.15;12.35;;;;;;;8.92;100.00;97888.44;1693196;83;21006;-73
2021/09/24 08:08:50;;;;;;;18.50;11.93;;;;;;;8.98;100.00;97885.70;1688781;84;21027;-75
2021/09/24 08:11:17;;;;;;;18.80;12.07;;;;;;;9.03;100.00;97892.30;1677840;84;21107;-75
2021/09/24 08:13:44;;;;;;;19.92;12.25;;;;;;;9.07;100.00;97893.20;1682937;85;21520;-76
2021/09/24 08:16:10;;;;;;;15.98;11.33;;;;;;;9.11;100.00;97900.95;1683039;83;21111;-76
2021/09/24 08:18:38;;;;;;;17.42;11.50;;;;;;;9.19;100.00;97889.64;1688161;84;20970;-74
2021/09/24 08:21:05;;;;;;;17.98;11.55;;;;;;;9.30;100.00;97891.30;1654927;84;22319;-75
2021/09/24 08:23:33;;;;;;;16.07;10.20;;;;;;;9.40;100.00;97897.08;1653842;86;21097;-74
2021/09/24 08:26:00;;;;;;;13.55;8.80;;;;;;;9.46;100.00;97885.31;1650700;85;21074;-75
2021/09/24 08:28:27;;;;;;;16.37;8.08;;;;;;;9.47;100.00;97883.59;1653212;86;21125;-74
2021/09/24 08:30:55;;;;;;;12.65;6.90;;;;;;;9.46;100.00;97882.56;1655908;85;21028;-75
2021/09/24 08:33:22;;;;;;;12.25;4.47;;;;;;;9.43;100.00;97890.11;1654307;86;21917;-74
2021/09/24 08:35:50;;;;;;;6.67;4.53;;;;;;;9.34;100.00;97882.61;1653507;85;21634;-75
2021/09/24 08:38:17;;;;;;;9.20;5.03;;;;;;;9.22;100.00;97897.96;1652954;85;21044;-75
2021/09/24 08:40:44;;;;;;;11.78;4.37;;;;;;;9.14;100.00;97888.52;1656083;85;21003;-80
2021/09/24 08:43:12;;;;;;;7.47;4.30;;;;;;;9.09;100.00;97872.33;1654755;85;21068;-79
2021/09/24 08:45:41;;;;;;;15.40;6.00;;;;;;;9.09;100.00;97884.64;1656128;85;20944;-81
2021/09/24 08:48:12;;;;;;;12.50;6.35;;;;;;;9.10;100.00;97887.61;1653655;85;21132;-78
2021/09/24 08:50:39;;;;;;;7.85;5.40;;;;;;;9.15;100.00;97896.38;1649358;86;21006;-74
2021/09/24 08:53:07;;;;;;;14.53;7.25;;;;;;;9.21;100.00;97890.89;1656931;85;21033;-74
2021/09/24 08:55:35;;;;;;;15.25;8.08;;;;;;;9.30;100.00;97885.25;1660943;85;21545;-79
2021/09/24 08:58:01;;;;;;;9.30;6.67;;;;;;;9.47;100.00;97884.16;1641368;86;21071;-77
2021/09/24 09:00:28;;;;;;;14.13;9.33;;;;;;;9.75;100.00;97881.42;1651937;86;22164;-76
2021/09/24 09:03:14;;;;;;;20.05;9.78;;;;;;;10.09;100.00;97886.80;1649274;86;21046;-73
2021/09/24 09:05:50;;;;;;;12.07;9.10;;;;;;;10.43;100.00;97884.73;1656547;85;21098;-75
2021/09/24 09:08:33;;;;;;;17.48;8.83;;;;;;;10.76;100.00;97881.60;1653590;84;21022;-78
2021/09/24 09:11:10;;;;;;;13.40;8.65;;;;;;;10.99;100.00;97880.33;1699265;82;21022;-78
2021/09/24 09:13:50;;;;;;;14.28;7.83;;;;;;;11.22;100.00;97889.47;1683218;83;20951;-75
2021/09/24 09:16:36;;;;;;;13.58;9.05;;;;;;;11.39;100.00;97882.77;1654802;85;21589;-78
2021/09/24 09:19:11;;;;;;;19.73;11.80;;;;;;;11.69;100.00;97879.41;1646296;87;20941;-79
2021/09/24 09:21:42;;;;;;;22.52;14.45;;;;;;;11.98;100.00;97893.94;1646869;87;21081;-73
2021/09/24 09:24:24;;;;;;;12.95;8.58;;;;;;;12.16;100.00;97883.23;1647172;86;21513;-77
2021/09/24 09:27:20;;;;;;;12.60;7.40;;;;;;;12.29;100.00;97891.52;1710900;83;21083;-79
2021/09/24 09:30:11;;;;;;;12.80;8.43;;;;;;;12.33;100.00;97886.88;1700409;83;21045;-74
2021/09/24 09:32:35;;;;;;;12.23;6.65;;;;;;;12.30;100.00;97877.98;1689860;84;21647;-74
2021/09/24 09:35:02;;;;;;;12.75;6.45;;;;;;;12.28;100.00;97874.80;1691217;83;21117;-77
2021/09/24 09:37:28;;;;;;;13.38;7.05;;;;;;;12.25;100.00;97881.04;1697783;84;21055;-75
2021/09/24 09:40:13;;;;;;;12.98;6.87;;;;;;;12.17;100.00;97886.20;1695667;83;21068;-77
2021/09/24 09:42:41;;;;;;;16.50;8.73;;;;;;;12.11;100.00;97884.95;1696683;83;21558;-76
2021/09/24 09:45:11;;;;;;;18.17;7.90;;;;;;;12.05;100.00;97891.32;1695099;83;21111;-77
2021/09/24 09:47:40;;;;;;;15.88;9.05;;;;;;;12.11;100.00;97884.36;1698009;84;21060;-76
2021/09/24 09:50:23;;;;;;;24.18;11.63;;;;;;;12.45;100.00;97888.65;1698170;83;21011;-79
2021/09/24 09:53:03;;;;;;;24.23;14.70;;;;;;;12.87;100.00;97892.05;1696259;83;21109;-90
2021/09/24 09:55:36;;;;;;;10.90;6.20;;;;;;;13.09;100.00;97882.14;1697252;83;21561;-76
2021/09/24 09:58:07;;;;;;;10.10;5.53;;;;;;;12.99;100.00;97896.55;1698168;83;20948;-76
2021/09/24 10:00:34;;;;;;;11.22;5.95;;;;;;;12.78;100.00;97886.59;1693392;83;21094;-76
2021/09/24 10:03:10;;;;;;;9.65;6.53;;;;;;;12.62;100.00;97900.53;1691034;84;21016;-78
2021/09/24 10:05:42;;;;;;;19.45;10.95;;;;;;;12.62;100.00;97896.98;1689127;84;21149;-77
2021/09/24 10:08:22;;;;;;;18.45;8.23;;;;;;;12.59;100.00;97894.39;1690369;84;20948;-77
2021/09/24 10:11:14;;;;;;;12.60;6.03;;;;;;;12.52;100.00;97899.78;1670183;84;21729;-80
2021/09/24 10:14:00;;;;;;;8.83;4.55;;;;;;;12.36;100.00;97908.16;1679034;83;21060;-76
2021/09/24 10:16:45;;;;;;;9.28;5.47;;;;;;;12.19;100.00;97904.51;1705858;84;21507;-77
2021/09/24 10:19:13;;;;;;;18.12;6.17;;;;;;;12.08;100.00;97907.67;1695984;83;21167;-75
2021/09/24 10:21:41;;;;;;;9.65;4.58;;;;;;;12.03;100.00;97908.77;1695313;83;21079;-76
2021/09/24 10:24:08;;;;;;;11.83;5.12;;;;;;;12.01;100.00;97904.22;1699938;83;20992;-76
2021/09/24 10:26:42;;;;;;;11.30;4.53;;;;;;;11.99;100.00;97908.48;1698016;84;21102;-75
2021/09/24 10:29:15;;;;;;;9.43;3.40;;;;;;;12.10;100.00;97914.41;1698918;83;21501;-76
2021/09/24 10:31:48;;;;;;;5.78;3.00;;;;;;;12.31;100.00;97907.67;1698865;83;21130;-76
2021/09/24 10:34:13;;;;;;;8.23;3.37;;;;;;;12.44;100.00;97910.45;1694475;83;21011;-76
2021/09/24 10:36:56;;;;;;;7.47;3.10;;;;;;;12.41;100.00;97913.36;1700965;84;20928;-76
2021/09/24 10:39:33;;;;;;;11.88;3.08;;;;;;;12.33;100.00;97914.98;1698681;83;21445;-77
2021/09/24 10:42:22;;;;;;;7.80;3.22;;;;;;;12.20;100.00;97918.48;1697084;83;21062;-76
2021/09/24 10:45:32;;;;;;;6.25;3.40;;;;;;;12.04;100.00;97926.06;1704765;83;21151;-78
2021/09/24 10:48:20;;;;;;;23.77;14.65;;;;;;;11.89;100.00;97913.42;1699576;83;21082;-76
2021/09/24 10:50:54;;;;;;;15.58;8.18;;;;;;;11.80;100.00;97923.05;1696712;83;21002;-76
2021/09/24 10:53:29;;;;;;;10.23;4.25;;;;;;;11.69;100.00;97916.52;1700185;84;20952;-76
2021/09/24 10:56:01;;;;;;;8.18;3.05;;;;;;;11.62;100.00;97927.36;1698756;83;20971;-76
2021/09/24 10:58:33;;;;;;;8.70;3.22;;;;;;;11.51;100.00;97924.42;1698225;83;21089;-76
2021/09/24 11:01:14;;;;;;;8.48;3.08;;;;;;;11.43;100.00;97936.41;1698803;83;20996;-76
2021/09/24 11:03:59;;;;;;;8.80;3.10;;;;;;;11.38;100.00;97932.58;1697625;83;20950;-76
2021/09/24 11:06:47;;;;;;;7.55;3.15;;;;;;;11.33;100.00;97930.91;1698124;83;21532;-77
2021/09/24 11:09:20;;;;;;;11.03;2.90;;;;;;;11.39;100.00;97920.43;1695212;83;21011;-76
2021/09/24 11:12:02;;;;;;;7.60;2.55;;;;;;;11.50;100.00;97933.82;1697037;84;20936;-76
2021/09/24 11:14:43;;;;;;;10.05;3.10;;;;;;;11.65;100.00;97937.63;1696244;83;21418;-76
2021/09/24 11:17:12;;;;;;;12.88;3.37;;;;;;;11.76;100.00;97932.57;1697458;83;20918;-76
2021/09/24 11:19:43;;;;;;;9.00;2.10;;;;;;;11.83;100.00;97934.12;1696684;83;21014;-76
2021/09/24 11:22:20;;;;;;;;;;;;;;;12.05;100.00;97927.08;1701256;83;20889;-74
2021/09/24 11:25:01;;;;;;;11.05;2.60;;;;;;;12.53;100.00;97924.18;1698730;83;21160;-74
2021/09/24 11:27:40;;;;;;;5.53;1.87;;;;;;;13.04;100.00;97917.48;1700272;84;20992;-74
2021/09/24 11:30:11;;;;;;;9.93;2.05;;;;;;;13.32;100.00;97923.98;1693140;83;21034;-75